sensor_id;sensor_type;location;lat;lon;timestamp;temperature;humidity
18712;DHT22;9485;49.386;8.674;2022-11-23T00:04:43;10.90;94.50
18712;DHT22;9485;49.386;8.674;2022-11-23T00:10:04;10.90;94.50
18712;DHT22;9485;49.386;8.674;2022-11-23T00:15:27;10.90;94.50
18712;DHT22;9485;49.386;8.674;2022-11-23T00:20:47;11.00;94.30
18712;DHT22;9485;49.386;8.674;2022-11-23T00:26:08;11.00;94.40
18712;DHT22;9485;49.386;8.674;2022-11-23T00:31:31;10.90;94.30
18712;DHT22;9485;49.386;8.674;2022-11-23T00:36:51;10.90;94.20
18712;DHT22;9485;49.386;8.674;2022-11-23T00:42:12;10.90;94.30
18712;DHT22;9485;49.386;8.674;2022-11-23T00:47:34;10.90;94.20
18712;DHT22;9485;49.386;8.674;2022-11-23T00:52:56;10.90;94.00
18712;DHT22;9485;49.386;8.674;2022-11-23T00:58:17;10.90;94.20
18712;DHT22;9485;49.386;8.674;2022-11-23T01:03:41;10.90;94.20
18712;DHT22;9485;49.386;8.674;2022-11-23T01:09:05;10.90;94.20
18712;DHT22;9485;49.386;8.674;2022-11-23T01:14:27;10.80;94.10
18712;DHT22;9485;49.386;8.674;2022-11-23T01:19:49;10.80;94.00
18712;DHT22;9485;49.386;8.674;2022-11-23T01:25:10;10.80;94.10
18712;DHT22;9485;49.386;8.674;2022-11-23T01:30:32;10.80;94.10
18712;DHT22;9485;49.386;8.674;2022-11-23T01:35:56;10.80;94.10
18712;DHT22;9485;49.386;8.674;2022-11-23T01:41:18;10.80;94.10
18712;DHT22;9485;49.386;8.674;2022-11-23T01:46:41;10.80;94.20
18712;DHT22;9485;49.386;8.674;2022-11-23T01:52:06;10.90;94.30
18712;DHT22;9485;49.386;8.674;2022-11-23T01:57:32;10.90;94.20
18712;DHT22;9485;49.386;8.674;2022-11-23T02:02:59;10.90;94.20
18712;DHT22;9485;49.386;8.674;2022-11-23T02:08:22;10.90;94.30
18712;DHT22;9485;49.386;8.674;2022-11-23T02:13:44;11.00;94.20
18712;DHT22;9485;49.386;8.674;2022-11-23T02:19:13;11.00;94.20
18712;DHT22;9485;49.386;8.674;2022-11-23T02:24:46;11.00;94.40
18712;DHT22;9485;49.386;8.674;2022-11-23T02:30:13;11.00;93.70
18712;DHT22;9485;49.386;8.674;2022-11-23T02:35:34;11.00;93.90
18712;DHT22;9485;49.386;8.674;2022-11-23T02:40:54;10.90;93.90
18712;DHT22;9485;49.386;8.674;2022-11-23T02:46:17;10.90;93.90
18712;DHT22;9485;49.386;8.674;2022-11-23T02:51:41;10.80;93.70
18712;DHT22;9485;49.386;8.674;2022-11-23T02:57:03;10.80;93.90
18712;DHT22;9485;49.386;8.674;2022-11-23T03:02:27;10.70;93.90
18712;DHT22;9485;49.386;8.674;2022-11-23T03:07:47;10.70;93.90
18712;DHT22;9485;49.386;8.674;2022-11-23T03:13:08;10.70;94.00
18712;DHT22;9485;49.386;8.674;2022-11-23T03:18:33;10.70;94.10
18712;DHT22;9485;49.386;8.674;2022-11-23T03:23:54;10.80;94.10
18712;DHT22;9485;49.386;8.674;2022-11-23T03:29:15;10.80;94.40
18712;DHT22;9485;49.386;8.674;2022-11-23T03:34:37;10.90;94.20
18712;DHT22;9485;49.386;8.674;2022-11-23T03:39:58;10.90;93.90
18712;DHT22;9485;49.386;8.674;2022-11-23T03:45:37;10.90;94.00
18712;DHT22;9485;49.386;8.674;2022-11-23T03:50:59;10.90;94.00
18712;DHT22;9485;49.386;8.674;2022-11-23T03:56:20;10.90;93.90
18712;DHT22;9485;49.386;8.674;2022-11-23T04:01:42;10.90;94.00
18712;DHT22;9485;49.386;8.674;2022-11-23T04:07:11;11.00;94.00
18712;DHT22;9485;49.386;8.674;2022-11-23T04:12:38;11.00;93.90
18712;DHT22;9485;49.386;8.674;2022-11-23T04:18:00;11.00;94.00
18712;DHT22;9485;49.386;8.674;2022-11-23T04:23:22;11.00;93.90
18712;DHT22;9485;49.386;8.674;2022-11-23T04:28:43;11.00;93.70
18712;DHT22;9485;49.386;8.674;2022-11-23T04:34:04;11.00;93.90
18712;DHT22;9485;49.386;8.674;2022-11-23T04:39:26;11.00;93.80
18712;DHT22;9485;49.386;8.674;2022-11-23T04:45:16;11.00;93.80
18712;DHT22;9485;49.386;8.674;2022-11-23T04:50:36;11.00;93.80
18712;DHT22;9485;49.386;8.674;2022-11-23T04:55:58;11.00;93.70
18712;DHT22;9485;49.386;8.674;2022-11-23T05:01:19;11.00;93.70
18712;DHT22;9485;49.386;8.674;2022-11-23T05:07:00;11.00;93.80
18712;DHT22;9485;49.386;8.674;2022-11-23T05:12:23;11.00;93.70
18712;DHT22;9485;49.386;8.674;2022-11-23T05:17:45;11.00;93.60
18712;DHT22;9485;49.386;8.674;2022-11-23T05:23:14;11.00;93.70
18712;DHT22;9485;49.386;8.674;2022-11-23T05:28:38;11.10;93.70
18712;DHT22;9485;49.386;8.674;2022-11-23T05:34:00;11.10;93.70
18712;DHT22;9485;49.386;8.674;2022-11-23T05:39:31;11.10;93.80
18712;DHT22;9485;49.386;8.674;2022-11-23T05:44:54;11.10;93.80
18712;DHT22;9485;49.386;8.674;2022-11-23T05:50:24;11.20;93.70
18712;DHT22;9485;49.386;8.674;2022-11-23T05:56:06;11.20;93.60
18712;DHT22;9485;49.386;8.674;2022-11-23T06:01:38;11.10;93.60
18712;DHT22;9485;49.386;8.674;2022-11-23T06:07:01;11.10;93.40
18712;DHT22;9485;49.386;8.674;2022-11-23T06:12:31;11.10;93.30
18712;DHT22;9485;49.386;8.674;2022-11-23T06:17:58;11.10;93.30
18712;DHT22;9485;49.386;8.674;2022-11-23T06:23:26;11.10;93.20
18712;DHT22;9485;49.386;8.674;2022-11-23T06:28:50;11.10;93.40
18712;DHT22;9485;49.386;8.674;2022-11-23T06:34:12;11.00;93.20
18712;DHT22;9485;49.386;8.674;2022-11-23T06:39:33;11.00;93.30
18712;DHT22;9485;49.386;8.674;2022-11-23T06:44:57;11.00;93.30
18712;DHT22;9485;49.386;8.674;2022-11-23T06:50:20;11.00;93.30
18712;DHT22;9485;49.386;8.674;2022-11-23T06:55:41;11.00;93.30
18712;DHT22;9485;49.386;8.674;2022-11-23T07:01:06;11.00;93.40
18712;DHT22;9485;49.386;8.674;2022-11-23T07:06:41;11.00;93.20
18712;DHT22;9485;49.386;8.674;2022-11-23T07:12:12;11.00;93.20
18712;DHT22;9485;49.386;8.674;2022-11-23T07:17:37;11.00;93.30
18712;DHT22;9485;49.386;8.674;2022-11-23T07:23:01;10.90;93.40
18712;DHT22;9485;49.386;8.674;2022-11-23T07:28:22;10.90;93.10
18712;DHT22;9485;49.386;8.674;2022-11-23T07:33:44;10.90;93.20
18712;DHT22;9485;49.386;8.674;2022-11-23T07:39:06;10.80;93.30
18712;DHT22;9485;49.386;8.674;2022-11-23T07:44:27;10.90;93.20
18712;DHT22;9485;49.386;8.674;2022-11-23T07:49:48;10.90;93.40
18712;DHT22;9485;49.386;8.674;2022-11-23T07:55:10;10.90;93.40
18712;DHT22;9485;49.386;8.674;2022-11-23T08:00:31;10.90;93.40
18712;DHT22;9485;49.386;8.674;2022-11-23T08:05:53;11.00;93.40
18712;DHT22;9485;49.386;8.674;2022-11-23T08:11:15;11.10;93.50
18712;DHT22;9485;49.386;8.674;2022-11-23T08:16:36;11.10;93.40
18712;DHT22;9485;49.386;8.674;2022-11-23T08:21:57;11.20;93.40
18712;DHT22;9485;49.386;8.674;2022-11-23T08:27:19;11.20;93.80
18712;DHT22;9485;49.386;8.674;2022-11-23T08:32:39;11.30;93.30
18712;DHT22;9485;49.386;8.674;2022-11-23T08:38:00;11.40;93.50
18712;DHT22;9485;49.386;8.674;2022-11-23T08:43:22;11.50;93.60
18712;DHT22;9485;49.386;8.674;2022-11-23T08:48:42;11.60;93.40
18712;DHT22;9485;49.386;8.674;2022-11-23T08:54:03;11.70;93.20
18712;DHT22;9485;49.386;8.674;2022-11-23T08:59:25;11.90;93.60
18712;DHT22;9485;49.386;8.674;2022-11-23T09:04:45;12.10;93.80
18712;DHT22;9485;49.386;8.674;2022-11-23T09:10:07;12.40;93.90
18712;DHT22;9485;49.386;8.674;2022-11-23T09:15:29;12.80;93.90
18712;DHT22;9485;49.386;8.674;2022-11-23T09:20:50;13.30;94.10
18712;DHT22;9485;49.386;8.674;2022-11-23T09:26:10;13.80;93.90
18712;DHT22;9485;49.386;8.674;2022-11-23T09:31:32;14.20;93.60
18712;DHT22;9485;49.386;8.674;2022-11-23T09:36:55;14.80;93.40
18712;DHT22;9485;49.386;8.674;2022-11-23T09:42:42;15.50;93.00
18712;DHT22;9485;49.386;8.674;2022-11-23T09:48:26;16.30;91.20
18712;DHT22;9485;49.386;8.674;2022-11-23T09:54:18;17.20;91.10
18712;DHT22;9485;49.386;8.674;2022-11-23T09:59:48;17.90;90.50
18712;DHT22;9485;49.386;8.674;2022-11-23T10:05:16;18.50;90.00
18712;DHT22;9485;49.386;8.674;2022-11-23T10:10:43;19.00;84.80
18712;DHT22;9485;49.386;8.674;2022-11-23T10:16:18;19.20;82.80
18712;DHT22;9485;49.386;8.674;2022-11-23T10:21:56;19.20;80.30
18712;DHT22;9485;49.386;8.674;2022-11-23T10:27:27;19.00;79.70
18712;DHT22;9485;49.386;8.674;2022-11-23T10:32:51;18.40;79.20
18712;DHT22;9485;49.386;8.674;2022-11-23T10:38:19;17.70;79.40
18712;DHT22;9485;49.386;8.674;2022-11-23T10:43:43;17.00;79.60
18712;DHT22;9485;49.386;8.674;2022-11-23T10:49:15;16.40;81.30
18712;DHT22;9485;49.386;8.674;2022-11-23T10:54:48;16.10;82.40
18712;DHT22;9485;49.386;8.674;2022-11-23T11:00:15;15.90;83.00
18712;DHT22;9485;49.386;8.674;2022-11-23T11:05:47;15.70;83.50
18712;DHT22;9485;49.386;8.674;2022-11-23T11:11:21;15.40;84.90
18712;DHT22;9485;49.386;8.674;2022-11-23T11:16:47;15.30;82.70
18712;DHT22;9485;49.386;8.674;2022-11-23T11:22:29;15.00;84.40
18712;DHT22;9485;49.386;8.674;2022-11-23T11:27:55;14.90;83.10
18712;DHT22;9485;49.386;8.674;2022-11-23T11:33:18;14.70;86.00
18712;DHT22;9485;49.386;8.674;2022-11-23T11:38:48;14.60;87.00
18712;DHT22;9485;49.386;8.674;2022-11-23T11:44:18;14.50;86.30
18712;DHT22;9485;49.386;8.674;2022-11-23T11:49:44;14.40;86.50
18712;DHT22;9485;49.386;8.674;2022-11-23T11:55:14;14.30;88.10
18712;DHT22;9485;49.386;8.674;2022-11-23T12:00:41;14.40;86.50
18712;DHT22;9485;49.386;8.674;2022-11-23T12:06:07;14.30;87.40
18712;DHT22;9485;49.386;8.674;2022-11-23T12:11:32;14.30;87.00
18712;DHT22;9485;49.386;8.674;2022-11-23T12:17:00;14.30;87.50
18712;DHT22;9485;49.386;8.674;2022-11-23T12:22:35;14.40;86.90
18712;DHT22;9485;49.386;8.674;2022-11-23T12:34:09;14.30;88.20
18712;DHT22;9485;49.386;8.674;2022-11-23T12:39:54;14.40;88.70
18712;DHT22;9485;49.386;8.674;2022-11-23T12:45:41;14.40;87.60
18712;DHT22;9485;49.386;8.674;2022-11-23T12:51:17;14.50;88.10
18712;DHT22;9485;49.386;8.674;2022-11-23T12:56:54;14.50;88.10
18712;DHT22;9485;49.386;8.674;2022-11-23T13:02:51;14.60;87.80
18712;DHT22;9485;49.386;8.674;2022-11-23T13:08:58;14.60;85.00
18712;DHT22;9485;49.386;8.674;2022-11-23T13:14:39;14.70;85.40
18712;DHT22;9485;49.386;8.674;2022-11-23T13:26:15;14.80;85.00
18712;DHT22;9485;49.386;8.674;2022-11-23T13:31:37;14.80;85.70
18712;DHT22;9485;49.386;8.674;2022-11-23T13:36:58;14.80;84.50
18712;DHT22;9485;49.386;8.674;2022-11-23T13:42:23;14.80;85.00
18712;DHT22;9485;49.386;8.674;2022-11-23T13:48:16;14.80;82.80
18712;DHT22;9485;49.386;8.674;2022-11-23T13:53:39;14.70;80.60
18712;DHT22;9485;49.386;8.674;2022-11-23T13:59:27;14.70;79.90
18712;DHT22;9485;49.386;8.674;2022-11-23T14:04:49;14.60;77.80
18712;DHT22;9485;49.386;8.674;2022-11-23T14:10:17;14.60;81.60
18712;DHT22;9485;49.386;8.674;2022-11-23T14:15:46;14.50;80.10
18712;DHT22;9485;49.386;8.674;2022-11-23T14:21:17;14.50;80.20
18712;DHT22;9485;49.386;8.674;2022-11-23T14:26:54;14.40;81.60
18712;DHT22;9485;49.386;8.674;2022-11-23T14:32:31;14.40;80.90
18712;DHT22;9485;49.386;8.674;2022-11-23T14:38:32;14.40;81.60
18712;DHT22;9485;49.386;8.674;2022-11-23T14:44:02;14.20;78.90
18712;DHT22;9485;49.386;8.674;2022-11-23T14:49:26;14.10;80.70
18712;DHT22;9485;49.386;8.674;2022-11-23T14:54:50;14.00;81.00
18712;DHT22;9485;49.386;8.674;2022-11-23T15:00:25;13.90;81.80
18712;DHT22;9485;49.386;8.674;2022-11-23T15:05:54;13.80;80.00
18712;DHT22;9485;49.386;8.674;2022-11-23T15:11:20;13.60;81.40
18712;DHT22;9485;49.386;8.674;2022-11-23T15:16:46;13.60;81.20
18712;DHT22;9485;49.386;8.674;2022-11-23T15:22:13;13.40;81.80
18712;DHT22;9485;49.386;8.674;2022-11-23T15:27:38;13.30;81.20
18712;DHT22;9485;49.386;8.674;2022-11-23T15:33:02;13.20;82.40
18712;DHT22;9485;49.386;8.674;2022-11-23T15:38:29;13.20;83.10
18712;DHT22;9485;49.386;8.674;2022-11-23T15:43:51;13.10;83.00
18712;DHT22;9485;49.386;8.674;2022-11-23T15:49:13;13.10;83.60
18712;DHT22;9485;49.386;8.674;2022-11-23T15:54:38;13.10;83.80
18712;DHT22;9485;49.386;8.674;2022-11-23T16:00:00;13.10;83.50
18712;DHT22;9485;49.386;8.674;2022-11-23T16:05:31;13.00;84.50
18712;DHT22;9485;49.386;8.674;2022-11-23T16:10:54;13.10;84.80
18712;DHT22;9485;49.386;8.674;2022-11-23T16:16:16;13.10;84.10
18712;DHT22;9485;49.386;8.674;2022-11-23T16:21:43;13.10;84.60
18712;DHT22;9485;49.386;8.674;2022-11-23T16:27:13;13.10;84.20
18712;DHT22;9485;49.386;8.674;2022-11-23T16:32:34;13.10;83.60
18712;DHT22;9485;49.386;8.674;2022-11-23T16:37:54;13.20;83.50
18712;DHT22;9485;49.386;8.674;2022-11-23T16:43:17;13.20;83.90
18712;DHT22;9485;49.386;8.674;2022-11-23T16:48:40;13.20;83.00
18712;DHT22;9485;49.386;8.674;2022-11-23T16:54:01;13.20;83.30
18712;DHT22;9485;49.386;8.674;2022-11-23T16:59:23;13.20;83.60
18712;DHT22;9485;49.386;8.674;2022-11-23T17:04:44;13.30;83.40
18712;DHT22;9485;49.386;8.674;2022-11-23T17:10:05;13.30;84.90
18712;DHT22;9485;49.386;8.674;2022-11-23T17:15:28;13.30;83.40
18712;DHT22;9485;49.386;8.674;2022-11-23T17:20:48;13.10;83.50
18712;DHT22;9485;49.386;8.674;2022-11-23T17:26:22;12.90;83.90
18712;DHT22;9485;49.386;8.674;2022-11-23T17:31:50;12.60;84.20
18712;DHT22;9485;49.386;8.674;2022-11-23T17:37:15;12.30;85.80
18712;DHT22;9485;49.386;8.674;2022-11-23T17:42:37;12.10;86.10
18712;DHT22;9485;49.386;8.674;2022-11-23T17:47:59;11.80;87.00
18712;DHT22;9485;49.386;8.674;2022-11-23T17:53:21;11.60;88.50
18712;DHT22;9485;49.386;8.674;2022-11-23T17:58:41;11.50;89.70
18712;DHT22;9485;49.386;8.674;2022-11-23T18:04:03;11.40;90.30
18712;DHT22;9485;49.386;8.674;2022-11-23T18:09:23;11.30;90.80
18712;DHT22;9485;49.386;8.674;2022-11-23T18:14:44;11.30;91.20
18712;DHT22;9485;49.386;8.674;2022-11-23T18:20:07;11.20;91.50
18712;DHT22;9485;49.386;8.674;2022-11-23T18:25:28;11.20;91.80
18712;DHT22;9485;49.386;8.674;2022-11-23T18:30:49;11.20;92.00
18712;DHT22;9485;49.386;8.674;2022-11-23T18:36:11;11.10;92.10
18712;DHT22;9485;49.386;8.674;2022-11-23T18:41:32;11.10;92.30
18712;DHT22;9485;49.386;8.674;2022-11-23T18:46:53;11.10;92.40
18712;DHT22;9485;49.386;8.674;2022-11-23T18:52:15;11.00;92.50
18712;DHT22;9485;49.386;8.674;2022-11-23T18:57:36;11.00;92.70
18712;DHT22;9485;49.386;8.674;2022-11-23T19:02:58;10.90;92.80
18712;DHT22;9485;49.386;8.674;2022-11-23T19:08:21;10.90;93.00
18712;DHT22;9485;49.386;8.674;2022-11-23T19:13:42;10.90;93.20
18712;DHT22;9485;49.386;8.674;2022-11-23T19:19:05;10.90;93.30
18712;DHT22;9485;49.386;8.674;2022-11-23T19:24:28;10.90;93.50
18712;DHT22;9485;49.386;8.674;2022-11-23T19:29:48;10.90;93.60
18712;DHT22;9485;49.386;8.674;2022-11-23T19:35:09;10.90;93.80
18712;DHT22;9485;49.386;8.674;2022-11-23T19:40:31;10.90;93.80
18712;DHT22;9485;49.386;8.674;2022-11-23T19:45:54;10.90;94.00
18712;DHT22;9485;49.386;8.674;2022-11-23T19:51:17;10.90;94.10
18712;DHT22;9485;49.386;8.674;2022-11-23T19:56:40;10.90;94.20
18712;DHT22;9485;49.386;8.674;2022-11-23T20:02:00;10.90;94.20
18712;DHT22;9485;49.386;8.674;2022-11-23T20:07:21;10.90;94.30
18712;DHT22;9485;49.386;8.674;2022-11-23T20:12:43;10.90;94.50
18712;DHT22;9485;49.386;8.674;2022-11-23T20:18:03;10.90;94.50
18712;DHT22;9485;49.386;8.674;2022-11-23T20:23:24;11.00;94.60
18712;DHT22;9485;49.386;8.674;2022-11-23T20:28:49;11.00;94.70
18712;DHT22;9485;49.386;8.674;2022-11-23T20:34:10;11.00;94.80
18712;DHT22;9485;49.386;8.674;2022-11-23T20:39:30;11.00;94.80
18712;DHT22;9485;49.386;8.674;2022-11-23T20:44:53;11.10;94.90
18712;DHT22;9485;49.386;8.674;2022-11-23T20:50:14;11.10;94.90
18712;DHT22;9485;49.386;8.674;2022-11-23T20:55:35;11.10;95.00
18712;DHT22;9485;49.386;8.674;2022-11-23T21:01:01;11.10;94.70
18712;DHT22;9485;49.386;8.674;2022-11-23T21:06:24;11.00;94.60
18712;DHT22;9485;49.386;8.674;2022-11-23T21:11:45;10.90;94.70
18712;DHT22;9485;49.386;8.674;2022-11-23T21:17:25;10.90;94.80
18712;DHT22;9485;49.386;8.674;2022-11-23T21:22:46;10.80;95.00
18712;DHT22;9485;49.386;8.674;2022-11-23T21:28:06;10.90;95.20
18712;DHT22;9485;49.386;8.674;2022-11-23T21:33:28;10.90;95.20
18712;DHT22;9485;49.386;8.674;2022-11-23T21:38:49;10.90;95.30
18712;DHT22;9485;49.386;8.674;2022-11-23T21:44:10;10.90;95.30
18712;DHT22;9485;49.386;8.674;2022-11-23T21:49:32;10.90;95.20
18712;DHT22;9485;49.386;8.674;2022-11-23T21:54:53;10.90;95.20
18712;DHT22;9485;49.386;8.674;2022-11-23T22:00:14;10.90;95.10
18712;DHT22;9485;49.386;8.674;2022-11-23T22:05:36;10.90;95.20
18712;DHT22;9485;49.386;8.674;2022-11-23T22:10:57;10.80;95.20
18712;DHT22;9485;49.386;8.674;2022-11-23T22:16:19;10.80;95.30
18712;DHT22;9485;49.386;8.674;2022-11-23T22:21:43;10.80;95.40
18712;DHT22;9485;49.386;8.674;2022-11-23T22:27:04;10.80;95.40
18712;DHT22;9485;49.386;8.674;2022-11-23T22:32:25;10.80;95.40
18712;DHT22;9485;49.386;8.674;2022-11-23T22:37:46;10.80;95.40
18712;DHT22;9485;49.386;8.674;2022-11-23T22:43:07;10.80;95.50
18712;DHT22;9485;49.386;8.674;2022-11-23T22:48:27;10.80;95.60
18712;DHT22;9485;49.386;8.674;2022-11-23T22:53:53;10.80;95.60
18712;DHT22;9485;49.386;8.674;2022-11-23T22:59:14;10.80;95.60
18712;DHT22;9485;49.386;8.674;2022-11-23T23:04:35;10.90;95.70
18712;DHT22;9485;49.386;8.674;2022-11-23T23:09:56;10.90;95.80
18712;DHT22;9485;49.386;8.674;2022-11-23T23:15:17;10.90;95.90
18712;DHT22;9485;49.386;8.674;2022-11-23T23:20:38;11.00;95.90
18712;DHT22;9485;49.386;8.674;2022-11-23T23:26:00;11.10;95.90
18712;DHT22;9485;49.386;8.674;2022-11-23T23:31:20;11.10;95.80
18712;DHT22;9485;49.386;8.674;2022-11-23T23:36:41;11.10;95.80
18712;DHT22;9485;49.386;8.674;2022-11-23T23:42:03;11.10;95.70
18712;DHT22;9485;49.386;8.674;2022-11-23T23:47:26;11.20;95.70
18712;DHT22;9485;49.386;8.674;2022-11-23T23:52:46;11.20;95.70
18712;DHT22;9485;49.386;8.674;2022-11-23T23:58:08;11.20;95.60
